sensor_id;sensor_type;location;lat;lon;timestamp;pressure;altitude;pressure_sealevel;temperature;humidity
47522;BME280;32291;52.010;4.446;2024-02-23T00:00:45;76472.47;;;-144.67;83.08
47522;BME280;32291;52.010;4.446;2024-02-23T00:01:48;76438.22;;;-144.67;83.15
47522;BME280;32291;52.010;4.446;2024-02-23T00:02:57;76483.16;;;-144.67;83.72
47522;BME280;32291;52.010;4.446;2024-02-23T00:04:05;76491.72;;;-144.67;84.21
47522;BME280;32291;52.010;4.446;2024-02-23T00:05:09;76487.44;;;-144.67;83.20
47522;BME280;32291;52.010;4.446;2024-02-23T00:06:16;76470.31;;;-144.67;83.30
47522;BME280;32291;52.010;4.446;2024-02-23T00:07:23;76451.06;;;-144.67;82.90
47522;BME280;32291;52.010;4.446;2024-02-23T00:08:31;76481.03;;;-144.67;82.28
47522;BME280;32291;52.010;4.446;2024-02-23T00:09:33;76448.91;;;-144.67;82.27
47522;BME280;32291;52.010;4.446;2024-02-23T00:10:40;76478.88;;;-144.67;82.32
47522;BME280;32291;52.010;4.446;2024-02-23T00:11:47;76498.13;;;-144.67;82.71
47522;BME280;32291;52.010;4.446;2024-02-23T00:12:56;76472.47;;;-144.67;81.84
47522;BME280;32291;52.010;4.446;2024-02-23T00:14:02;76489.56;;;-144.67;81.35
47522;BME280;32291;52.010;4.446;2024-02-23T00:15:10;76502.41;;;-144.67;81.68
47522;BME280;32291;52.010;4.446;2024-02-23T00:16:17;76519.53;;;-144.67;81.72
47522;BME280;32291;52.010;4.446;2024-02-23T00:17:19;76510.97;;;-144.67;81.65
47522;BME280;32291;52.010;4.446;2024-02-23T00:18:26;76500.28;;;-144.67;81.21
47522;BME280;32291;52.010;4.446;2024-02-23T00:19:33;76483.16;;;-144.67;80.58
47522;BME280;32291;52.010;4.446;2024-02-23T00:20:34;76502.41;;;-144.67;80.77
47522;BME280;32291;52.010;4.446;2024-02-23T00:21:38;76502.41;;;-144.67;80.97
47522;BME280;32291;52.010;4.446;2024-02-23T00:22:46;76504.56;;;-144.67;81.21
47522;BME280;32291;52.010;4.446;2024-02-23T00:23:53;76502.41;;;-144.67;81.14
47522;BME280;32291;52.010;4.446;2024-02-23T00:24:55;76489.56;;;-144.67;80.50
47522;BME280;32291;52.010;4.446;2024-02-23T00:25:57;76489.56;;;-144.67;80.56
47522;BME280;32291;52.010;4.446;2024-02-23T00:27:04;76463.91;;;-144.67;79.33
47522;BME280;32291;52.010;4.446;2024-02-23T00:28:11;76489.56;;;-144.67;79.88
47522;BME280;32291;52.010;4.446;2024-02-23T00:29:18;76470.31;;;-144.67;79.05
47522;BME280;32291;52.010;4.446;2024-02-23T00:30:25;76446.78;;;-144.67;77.92
47522;BME280;32291;52.010;4.446;2024-02-23T00:31:31;76448.91;;;-144.67;76.82
47522;BME280;32291;52.010;4.446;2024-02-23T00:32:34;76468.19;;;-144.67;76.84
47522;BME280;32291;52.010;4.446;2024-02-23T00:33:36;76481.03;;;-144.67;77.11
47522;BME280;32291;52.010;4.446;2024-02-23T00:34:44;76491.72;;;-144.67;77.55
47522;BME280;32291;52.010;4.446;2024-02-23T00:35:46;76478.88;;;-144.67;76.99
47522;BME280;32291;52.010;4.446;2024-02-23T00:36:52;76463.91;;;-144.67;76.16
47522;BME280;32291;52.010;4.446;2024-02-23T00:37:59;76438.22;;;-144.67;75.71
47522;BME280;32291;52.010;4.446;2024-02-23T00:39:08;76470.31;;;-144.67;76.59
47522;BME280;32291;52.010;4.446;2024-02-23T00:40:15;76442.50;;;-144.67;75.92
47522;BME280;32291;52.010;4.446;2024-02-23T00:41:22;76478.88;;;-144.67;76.46
47522;BME280;32291;52.010;4.446;2024-02-23T00:42:24;76498.13;;;-144.67;76.49
47522;BME280;32291;52.010;4.446;2024-02-23T00:43:41;76498.13;;;-144.67;77.01
47522;BME280;32291;52.010;4.446;2024-02-23T00:44:48;76510.97;;;-144.67;76.54
47522;BME280;32291;52.010;4.446;2024-02-23T00:45:50;76476.75;;;-144.67;75.69
47522;BME280;32291;52.010;4.446;2024-02-23T00:46:57;76451.06;;;-144.67;75.19
47522;BME280;32291;52.010;4.446;2024-02-23T00:48:08;76478.88;;;-144.67;75.56
47522;BME280;32291;52.010;4.446;2024-02-23T00:49:14;76481.03;;;-144.67;75.84
47522;BME280;32291;52.010;4.446;2024-02-23T00:50:17;76493.84;;;-144.67;77.66
47522;BME280;32291;52.010;4.446;2024-02-23T00:51:24;76543.06;;;-144.67;79.57
47522;BME280;32291;52.010;4.446;2024-02-23T00:52:26;76545.22;;;-144.67;80.18
47522;BME280;32291;52.010;4.446;2024-02-23T00:53:33;76549.50;;;-144.67;79.28
47522;BME280;32291;52.010;4.446;2024-02-23T00:54:40;76568.75;;;-144.67;80.20
47522;BME280;32291;52.010;4.446;2024-02-23T00:55:42;76536.66;;;-144.67;79.44
47522;BME280;32291;52.010;4.446;2024-02-23T00:56:48;76517.41;;;-144.67;78.67
47522;BME280;32291;52.010;4.446;2024-02-23T00:57:55;76545.22;;;-144.67;79.83
47522;BME280;32291;52.010;4.446;2024-02-23T00:59:02;76615.84;;;-144.67;80.18
47522;BME280;32291;52.010;4.446;2024-02-23T01:00:10;76695.00;;;-144.67;83.33
47522;BME280;32291;52.010;4.446;2024-02-23T01:01:17;76776.34;;;-144.67;84.68
47522;BME280;32291;52.010;4.446;2024-02-23T01:02:19;76774.19;;;-144.67;85.65
47522;BME280;32291;52.010;4.446;2024-02-23T01:03:26;76806.28;;;-144.67;86.25
47522;BME280;32291;52.010;4.446;2024-02-23T01:04:33;76774.19;;;-144.67;86.36
47522;BME280;32291;52.010;4.446;2024-02-23T01:05:40;76767.78;;;-144.67;86.74
47522;BME280;32291;52.010;4.446;2024-02-23T01:06:49;76729.25;;;-144.67;86.23
47522;BME280;32291;52.010;4.446;2024-02-23T01:07:55;76695.00;;;-144.67;84.41
47522;BME280;32291;52.010;4.446;2024-02-23T01:09:02;76727.13;;;-144.67;84.84
47522;BME280;32291;52.010;4.446;2024-02-23T01:10:11;76733.53;;;-144.67;85.66
47522;BME280;32291;52.010;4.446;2024-02-23T01:11:17;76720.69;;;-144.67;86.26
47522;BME280;32291;52.010;4.446;2024-02-23T01:12:24;76724.97;;;-144.67;86.62
47522;BME280;32291;52.010;4.446;2024-02-23T01:13:31;76701.44;;;-144.67;86.35
47522;BME280;32291;52.010;4.446;2024-02-23T01:14:38;76724.97;;;-144.67;87.45
47522;BME280;32291;52.010;4.446;2024-02-23T01:15:42;76690.72;;;-144.67;87.18
47522;BME280;32291;52.010;4.446;2024-02-23T01:16:49;76692.88;;;-144.67;87.19
47522;BME280;32291;52.010;4.446;2024-02-23T01:17:51;76703.56;;;-144.67;87.16
47522;BME280;32291;52.010;4.446;2024-02-23T01:18:58;76716.41;;;-144.67;87.62
47522;BME280;32291;52.010;4.446;2024-02-23T01:20:05;76714.28;;;-144.67;87.38
47522;BME280;32291;52.010;4.446;2024-02-23T01:21:13;76703.56;;;-144.67;87.14
47522;BME280;32291;52.010;4.446;2024-02-23T01:22:20;76722.84;;;-144.67;86.67
47522;BME280;32291;52.010;4.446;2024-02-23T01:23:27;76716.41;;;-144.67;87.03
47522;BME280;32291;52.010;4.446;2024-02-23T01:24:29;76686.44;;;-144.67;85.97
47522;BME280;32291;52.010;4.446;2024-02-23T01:25:31;76677.88;;;-144.67;85.91
47522;BME280;32291;52.010;4.446;2024-02-23T01:26:37;76703.56;;;-144.67;85.88
47522;BME280;32291;52.010;4.446;2024-02-23T01:27:44;76742.09;;;-144.67;85.83
47522;BME280;32291;52.010;4.446;2024-02-23T01:28:51;76714.28;;;-144.67;85.76
47522;BME280;32291;52.010;4.446;2024-02-23T01:29:58;76705.72;;;-144.67;85.61
47522;BME280;32291;52.010;4.446;2024-02-23T01:31:08;76724.97;;;-144.67;85.63
47522;BME280;32291;52.010;4.446;2024-02-23T01:32:12;76720.69;;;-144.67;84.98
47522;BME280;32291;52.010;4.446;2024-02-23T01:33:14;76635.09;;;-144.67;82.55
47522;BME280;32291;52.010;4.446;2024-02-23T01:34:21;76635.09;;;-144.67;81.65
47522;BME280;32291;52.010;4.446;2024-02-23T01:35:28;76645.78;;;-144.67;81.46
47522;BME280;32291;52.010;4.446;2024-02-23T01:36:36;76690.72;;;-144.67;81.62
47522;BME280;32291;52.010;4.446;2024-02-23T01:37:43;76656.50;;;-144.67;81.18
47522;BME280;32291;52.010;4.446;2024-02-23T01:38:45;76652.22;;;-144.67;79.91
47522;BME280;32291;52.010;4.446;2024-02-23T01:39:53;76677.88;;;-144.67;80.36
47522;BME280;32291;52.010;4.446;2024-02-23T01:41:00;76669.34;;;-144.67;79.88
47522;BME280;32291;52.010;4.446;2024-02-23T01:42:02;76630.81;;;-144.67;79.14
47522;BME280;32291;52.010;4.446;2024-02-23T01:43:09;76647.94;;;-144.67;78.62
47522;BME280;32291;52.010;4.446;2024-02-23T01:44:12;76695.00;;;-144.67;79.90
47522;BME280;32291;52.010;4.446;2024-02-23T01:45:18;76677.88;;;-144.67;80.24
47522;BME280;32291;52.010;4.446;2024-02-23T01:46:21;76654.34;;;-144.67;79.10
47522;BME280;32291;52.010;4.446;2024-02-23T01:47:29;76692.88;;;-144.67;79.40
47522;BME280;32291;52.010;4.446;2024-02-23T01:48:32;76635.09;;;-144.67;78.55
47522;BME280;32291;52.010;4.446;2024-02-23T01:49:35;76622.25;;;-144.67;77.60
47522;BME280;32291;52.010;4.446;2024-02-23T01:50:43;76626.53;;;-144.67;77.62
47522;BME280;32291;52.010;4.446;2024-02-23T01:51:50;76639.38;;;-144.67;78.12
47522;BME280;32291;52.010;4.446;2024-02-23T01:53:02;76652.22;;;-144.67;78.08
47522;BME280;32291;52.010;4.446;2024-02-23T01:54:04;76684.31;;;-144.67;79.24
47522;BME280;32291;52.010;4.446;2024-02-23T01:55:12;76635.09;;;-144.67;78.42
47522;BME280;32291;52.010;4.446;2024-02-23T01:56:20;76665.06;;;-144.67;78.88
47522;BME280;32291;52.010;4.446;2024-02-23T01:57:28;76652.22;;;-144.67;78.43
47522;BME280;32291;52.010;4.446;2024-02-23T01:58:37;76675.75;;;-144.67;78.93
47522;BME280;32291;52.010;4.446;2024-02-23T01:59:44;76652.22;;;-144.67;78.54
47522;BME280;32291;52.010;4.446;2024-02-23T02:00:51;76603.00;;;-144.67;76.23
47522;BME280;32291;52.010;4.446;2024-02-23T02:01:58;76652.22;;;-144.67;76.33
47522;BME280;32291;52.010;4.446;2024-02-23T02:03:05;76617.97;;;-144.67;76.28
47522;BME280;32291;52.010;4.446;2024-02-23T02:04:07;76613.69;;;-144.67;75.71
47522;BME280;32291;52.010;4.446;2024-02-23T02:05:15;76613.69;;;-144.67;75.59
47522;BME280;32291;52.010;4.446;2024-02-23T02:06:23;76639.38;;;-144.67;76.12
47522;BME280;32291;52.010;4.446;2024-02-23T02:07:30;76613.69;;;-144.67;75.64
47522;BME280;32291;52.010;4.446;2024-02-23T02:08:34;76628.66;;;-144.67;75.66
47522;BME280;32291;52.010;4.446;2024-02-23T02:09:41;76605.13;;;-144.67;75.79
47522;BME280;32291;52.010;4.446;2024-02-23T02:10:48;76626.53;;;-144.67;76.72
47522;BME280;32291;52.010;4.446;2024-02-23T02:11:52;76635.09;;;-144.67;77.20
47522;BME280;32291;52.010;4.446;2024-02-23T02:13:03;76639.38;;;-144.67;78.10
47522;BME280;32291;52.010;4.446;2024-02-23T02:14:06;76611.56;;;-144.67;76.86
47522;BME280;32291;52.010;4.446;2024-02-23T02:15:08;76665.06;;;-144.67;77.38
47522;BME280;32291;52.010;4.446;2024-02-23T02:16:11;76632.94;;;-144.67;77.58
47522;BME280;32291;52.010;4.446;2024-02-23T02:17:18;76596.56;;;-144.67;76.49
47522;BME280;32291;52.010;4.446;2024-02-23T02:18:20;76560.19;;;-144.67;75.55
47522;BME280;32291;52.010;4.446;2024-02-23T02:19:27;76592.28;;;-144.67;75.99
47522;BME280;32291;52.010;4.446;2024-02-23T02:20:37;76558.06;;;-144.67;75.68
47522;BME280;32291;52.010;4.446;2024-02-23T02:21:47;76579.44;;;-144.67;75.76
47522;BME280;32291;52.010;4.446;2024-02-23T02:22:54;76534.50;;;-144.67;74.87
47522;BME280;32291;52.010;4.446;2024-02-23T02:24:01;76564.47;;;-144.67;74.81
47522;BME280;32291;52.010;4.446;2024-02-23T02:25:08;76588.00;;;-144.67;75.71
47522;BME280;32291;52.010;4.446;2024-02-23T02:26:15;76613.69;;;-144.67;75.72
47522;BME280;32291;52.010;4.446;2024-02-23T02:27:17;76620.13;;;-144.67;76.59
47522;BME280;32291;52.010;4.446;2024-02-23T02:28:26;76609.41;;;-144.67;76.01
47522;BME280;32291;52.010;4.446;2024-02-23T02:29:32;76588.00;;;-144.67;75.51
47522;BME280;32291;52.010;4.446;2024-02-23T02:30:39;76583.72;;;-144.67;75.20
47522;BME280;32291;52.010;4.446;2024-02-23T02:31:46;76564.47;;;-144.67;74.60
47522;BME280;32291;52.010;4.446;2024-02-23T02:32:48;76588.00;;;-144.67;74.58
47522;BME280;32291;52.010;4.446;2024-02-23T02:33:50;76596.56;;;-144.67;74.58
47522;BME280;32291;52.010;4.446;2024-02-23T02:34:57;76596.56;;;-144.67;74.41
47522;BME280;32291;52.010;4.446;2024-02-23T02:36:04;76585.88;;;-144.67;73.76
47522;BME280;32291;52.010;4.446;2024-02-23T02:37:06;76588.00;;;-144.67;73.54
47522;BME280;32291;52.010;4.446;2024-02-23T02:38:14;76583.72;;;-144.67;73.66
47522;BME280;32291;52.010;4.446;2024-02-23T02:39:21;76575.19;;;-144.67;73.58
47522;BME280;32291;52.010;4.446;2024-02-23T02:40:28;76605.13;;;-144.67;74.09
47522;BME280;32291;52.010;4.446;2024-02-23T02:41:37;76583.72;;;-144.67;73.64
47522;BME280;32291;52.010;4.446;2024-02-23T02:42:42;76562.34;;;-144.67;72.96
47522;BME280;32291;52.010;4.446;2024-02-23T02:43:49;76583.72;;;-144.67;73.36
47522;BME280;32291;52.010;4.446;2024-02-23T02:44:56;76594.44;;;-144.67;73.18
47522;BME280;32291;52.010;4.446;2024-02-23T02:46:02;76609.41;;;-144.67;74.00
47522;BME280;32291;52.010;4.446;2024-02-23T02:47:05;76596.56;;;-144.67;74.21
47522;BME280;32291;52.010;4.446;2024-02-23T02:48:07;76570.91;;;-144.67;73.68
47522;BME280;32291;52.010;4.446;2024-02-23T02:49:10;76583.72;;;-144.67;73.73
47522;BME280;32291;52.010;4.446;2024-02-23T02:50:16;76570.91;;;-144.67;73.25
47522;BME280;32291;52.010;4.446;2024-02-23T02:51:23;76573.03;;;-144.67;73.97
47522;BME280;32291;52.010;4.446;2024-02-23T02:52:30;76596.56;;;-144.67;74.74
47522;BME280;32291;52.010;4.446;2024-02-23T02:53:36;76626.53;;;-144.67;75.61
47522;BME280;32291;52.010;4.446;2024-02-23T02:54:45;76609.41;;;-144.67;75.70
47522;BME280;32291;52.010;4.446;2024-02-23T02:55:51;76598.72;;;-144.67;75.88
47522;BME280;32291;52.010;4.446;2024-02-23T02:56:53;76617.97;;;-144.67;76.56
47522;BME280;32291;52.010;4.446;2024-02-23T02:57:56;76613.69;;;-144.67;76.74
47522;BME280;32291;52.010;4.446;2024-02-23T02:59:02;76605.13;;;-144.67;76.89
47522;BME280;32291;52.010;4.446;2024-02-23T03:00:11;76596.56;;;-144.67;76.85
47522;BME280;32291;52.010;4.446;2024-02-23T03:01:13;76617.97;;;-144.67;77.27
47522;BME280;32291;52.010;4.446;2024-02-23T03:02:22;76613.69;;;-144.67;76.93
47522;BME280;32291;52.010;4.446;2024-02-23T03:03:29;76641.50;;;-144.67;77.88
47522;BME280;32291;52.010;4.446;2024-02-23T03:04:35;76626.53;;;-144.67;78.17
47522;BME280;32291;52.010;4.446;2024-02-23T03:05:42;76647.94;;;-144.67;78.46
47522;BME280;32291;52.010;4.446;2024-02-23T03:06:50;76677.88;;;-144.67;79.32
47522;BME280;32291;52.010;4.446;2024-02-23T03:07:57;76647.94;;;-144.67;78.88
47522;BME280;32291;52.010;4.446;2024-02-23T03:09:04;76647.94;;;-144.67;78.64
47522;BME280;32291;52.010;4.446;2024-02-23T03:10:07;76656.50;;;-144.67;79.31
47522;BME280;32291;52.010;4.446;2024-02-23T03:11:14;76626.53;;;-144.67;78.29
47522;BME280;32291;52.010;4.446;2024-02-23T03:12:21;76660.78;;;-144.67;78.88
47522;BME280;32291;52.010;4.446;2024-02-23T03:13:23;76660.78;;;-144.67;78.75
47522;BME280;32291;52.010;4.446;2024-02-23T03:14:30;76617.97;;;-144.67;77.87
47522;BME280;32291;52.010;4.446;2024-02-23T03:15:37;76669.34;;;-144.67;79.38
47522;BME280;32291;52.010;4.446;2024-02-23T03:16:44;76660.78;;;-144.67;78.96
47522;BME280;32291;52.010;4.446;2024-02-23T03:17:46;76635.09;;;-144.67;78.51
47522;BME280;32291;52.010;4.446;2024-02-23T03:18:48;76637.22;;;-144.67;77.82
47522;BME280;32291;52.010;4.446;2024-02-23T03:19:54;76714.28;;;-144.67;80.35
47522;BME280;32291;52.010;4.446;2024-02-23T03:21:01;76690.72;;;-144.67;80.41
47522;BME280;32291;52.010;4.446;2024-02-23T03:22:08;76669.34;;;-144.67;79.50
47522;BME280;32291;52.010;4.446;2024-02-23T03:23:15;76682.16;;;-144.67;80.25
47522;BME280;32291;52.010;4.446;2024-02-23T03:24:17;76639.38;;;-144.67;78.97
47522;BME280;32291;52.010;4.446;2024-02-23T03:25:24;76639.38;;;-144.67;78.72
47522;BME280;32291;52.010;4.446;2024-02-23T03:26:26;76630.81;;;-144.67;77.98
47522;BME280;32291;52.010;4.446;2024-02-23T03:27:35;76645.78;;;-144.67;78.57
47522;BME280;32291;52.010;4.446;2024-02-23T03:28:45;76637.22;;;-144.67;78.42
47522;BME280;32291;52.010;4.446;2024-02-23T03:29:52;76615.84;;;-144.67;77.53
47522;BME280;32291;52.010;4.446;2024-02-23T03:31:00;76632.94;;;-144.67;77.63
47522;BME280;32291;52.010;4.446;2024-02-23T03:32:07;76639.38;;;-144.67;78.33
47522;BME280;32291;52.010;4.446;2024-02-23T03:33:14;76641.50;;;-144.67;78.32
47522;BME280;32291;52.010;4.446;2024-02-23T03:34:21;76637.22;;;-144.67;78.03
47522;BME280;32291;52.010;4.446;2024-02-23T03:35:28;76641.50;;;-144.67;78.02
47522;BME280;32291;52.010;4.446;2024-02-23T03:36:36;76665.06;;;-144.67;78.76
47522;BME280;32291;52.010;4.446;2024-02-23T03:37:45;76650.06;;;-144.67;78.52
47522;BME280;32291;52.010;4.446;2024-02-23T03:38:52;76733.53;;;-144.67;80.72
47522;BME280;32291;52.010;4.446;2024-02-23T03:39:59;76729.25;;;-144.67;81.55
47522;BME280;32291;52.010;4.446;2024-02-23T03:41:09;76703.56;;;-144.67;81.57
47522;BME280;32291;52.010;4.446;2024-02-23T03:42:15;76667.19;;;-144.67;80.07
47522;BME280;32291;52.010;4.446;2024-02-23T03:43:17;76699.28;;;-144.67;81.17
47522;BME280;32291;52.010;4.446;2024-02-23T03:44:24;76722.84;;;-144.67;81.66
47522;BME280;32291;52.010;4.446;2024-02-23T03:45:31;76712.13;;;-144.67;81.44
47522;BME280;32291;52.010;4.446;2024-02-23T03:46:33;76716.41;;;-144.67;81.56
47522;BME280;32291;52.010;4.446;2024-02-23T03:47:41;76707.84;;;-144.67;81.40
47522;BME280;32291;52.010;4.446;2024-02-23T03:48:45;76673.63;;;-144.67;80.65
47522;BME280;32291;52.010;4.446;2024-02-23T03:49:51;76665.06;;;-144.67;80.45
47522;BME280;32291;52.010;4.446;2024-02-23T03:50:53;76703.56;;;-144.67;81.33
47522;BME280;32291;52.010;4.446;2024-02-23T03:52:00;76748.50;;;-144.67;83.71
47522;BME280;32291;52.010;4.446;2024-02-23T03:53:08;76774.19;;;-144.67;84.11
47522;BME280;32291;52.010;4.446;2024-02-23T03:54:15;76752.78;;;-144.67;84.20
47522;BME280;32291;52.010;4.446;2024-02-23T03:55:22;76724.97;;;-144.67;83.38
47522;BME280;32291;52.010;4.446;2024-02-23T03:56:29;76729.25;;;-144.67;82.91
47522;BME280;32291;52.010;4.446;2024-02-23T03:57:36;76739.94;;;-144.67;83.90
47522;BME280;32291;52.010;4.446;2024-02-23T03:58:43;76737.81;;;-144.67;83.71
47522;BME280;32291;52.010;4.446;2024-02-23T03:59:54;76733.53;;;-144.67;83.42
47522;BME280;32291;52.010;4.446;2024-02-23T04:01:01;76716.41;;;-144.67;83.32
47522;BME280;32291;52.010;4.446;2024-02-23T04:02:08;76769.91;;;-144.67;84.42
47522;BME280;32291;52.010;4.446;2024-02-23T04:03:10;76739.94;;;-144.67;84.38
47522;BME280;32291;52.010;4.446;2024-02-23T04:04:17;76759.22;;;-144.67;84.81
47522;BME280;32291;52.010;4.446;2024-02-23T04:05:24;76778.47;;;-144.67;85.78
47522;BME280;32291;52.010;4.446;2024-02-23T04:06:26;76742.09;;;-144.67;84.73
47522;BME280;32291;52.010;4.446;2024-02-23T04:07:28;76754.94;;;-144.67;85.15
47522;BME280;32291;52.010;4.446;2024-02-23T04:08:31;76761.34;;;-144.67;85.57
47522;BME280;32291;52.010;4.446;2024-02-23T04:09:33;76729.25;;;-144.67;84.78
47522;BME280;32291;52.010;4.446;2024-02-23T04:10:40;76763.50;;;-144.67;85.73
47522;BME280;32291;52.010;4.446;2024-02-23T04:11:49;76712.13;;;-144.67;84.44
47522;BME280;32291;52.010;4.446;2024-02-23T04:12:58;76720.69;;;-144.67;84.24
47522;BME280;32291;52.010;4.446;2024-02-23T04:14:04;76742.09;;;-144.67;84.74
47522;BME280;32291;52.010;4.446;2024-02-23T04:15:14;76754.94;;;-144.67;85.44
47522;BME280;32291;52.010;4.446;2024-02-23T04:16:24;76748.50;;;-144.67;85.17
47522;BME280;32291;52.010;4.446;2024-02-23T04:17:31;76808.44;;;-144.67;87.15
47522;BME280;32291;52.010;4.446;2024-02-23T04:18:33;76757.06;;;-144.67;86.62
47522;BME280;32291;52.010;4.446;2024-02-23T04:19:41;76742.09;;;-144.67;85.45
47522;BME280;32291;52.010;4.446;2024-02-23T04:20:43;76737.81;;;-144.67;85.58
47522;BME280;32291;52.010;4.446;2024-02-23T04:21:50;76767.78;;;-144.67;85.90
47522;BME280;32291;52.010;4.446;2024-02-23T04:22:57;76733.53;;;-144.67;85.70
47522;BME280;32291;52.010;4.446;2024-02-23T04:24:04;76772.06;;;-144.67;86.29
47522;BME280;32291;52.010;4.446;2024-02-23T04:25:10;76750.66;;;-144.67;86.39
47522;BME280;32291;52.010;4.446;2024-02-23T04:26:17;76763.50;;;-144.67;86.00
47522;BME280;32291;52.010;4.446;2024-02-23T04:27:19;76784.88;;;-144.67;86.92
47522;BME280;32291;52.010;4.446;2024-02-23T04:28:26;76750.66;;;-144.67;86.65
47522;BME280;32291;52.010;4.446;2024-02-23T04:29:40;76754.94;;;-144.67;86.05
47522;BME280;32291;52.010;4.446;2024-02-23T04:30:46;76769.91;;;-144.67;87.08
47522;BME280;32291;52.010;4.446;2024-02-23T04:31:53;76752.78;;;-144.67;86.97
47522;BME280;32291;52.010;4.446;2024-02-23T04:33:00;76759.22;;;-144.67;86.56
47522;BME280;32291;52.010;4.446;2024-02-23T04:34:07;76780.63;;;-144.67;86.89
47522;BME280;32291;52.010;4.446;2024-02-23T04:35:14;76763.50;;;-144.67;87.38
47522;BME280;32291;52.010;4.446;2024-02-23T04:36:21;76780.63;;;-144.67;87.49
47522;BME280;32291;52.010;4.446;2024-02-23T04:37:28;76769.91;;;-144.67;87.55
47522;BME280;32291;52.010;4.446;2024-02-23T04:38:31;76754.94;;;-144.67;86.67
47522;BME280;32291;52.010;4.446;2024-02-23T04:39:38;76722.84;;;-144.67;85.91
47522;BME280;32291;52.010;4.446;2024-02-23T04:40:48;76759.22;;;-144.67;86.07
47522;BME280;32291;52.010;4.446;2024-02-23T04:41:54;76742.09;;;-144.67;86.50
47522;BME280;32291;52.010;4.446;2024-02-23T04:42:57;76720.69;;;-144.67;85.64
47522;BME280;32291;52.010;4.446;2024-02-23T04:44:04;76712.13;;;-144.67;85.24
47522;BME280;32291;52.010;4.446;2024-02-23T04:45:11;76716.41;;;-144.67;85.10
47522;BME280;32291;52.010;4.446;2024-02-23T04:46:17;76690.72;;;-144.67;84.74
47522;BME280;32291;52.010;4.446;2024-02-23T04:47:24;76724.97;;;-144.67;84.40
47522;BME280;32291;52.010;4.446;2024-02-23T04:48:31;76737.81;;;-144.67;85.15
47522;BME280;32291;52.010;4.446;2024-02-23T04:49:38;76703.56;;;-144.67;84.55
47522;BME280;32291;52.010;4.446;2024-02-23T04:50:45;76742.09;;;-144.67;84.73
47522;BME280;32291;52.010;4.446;2024-02-23T04:51:47;76712.13;;;-144.67;84.32
47522;BME280;32291;52.010;4.446;2024-02-23T04:52:49;76716.41;;;-144.67;83.71
47522;BME280;32291;52.010;4.446;2024-02-23T04:53:56;76724.97;;;-144.67;83.18
47522;BME280;32291;52.010;4.446;2024-02-23T04:55:04;76733.53;;;-144.67;83.07
47522;BME280;32291;52.010;4.446;2024-02-23T04:56:11;76712.13;;;-144.67;81.96
47522;BME280;32291;52.010;4.446;2024-02-23T04:57:18;76733.53;;;-144.67;82.14
47522;BME280;32291;52.010;4.446;2024-02-23T04:58:24;76748.50;;;-144.67;82.43
47522;BME280;32291;52.010;4.446;2024-02-23T04:59:26;76729.25;;;-144.67;82.21
47522;BME280;32291;52.010;4.446;2024-02-23T05:00:34;76720.69;;;-144.67;81.55
47522;BME280;32291;52.010;4.446;2024-02-23T05:01:41;76686.44;;;-144.67;80.41
47522;BME280;32291;52.010;4.446;2024-02-23T05:02:49;76673.63;;;-144.67;80.36
47522;BME280;32291;52.010;4.446;2024-02-23T05:03:56;76695.00;;;-144.67;80.31
47522;BME280;32291;52.010;4.446;2024-02-23T05:04:58;76690.72;;;-144.67;81.01
47522;BME280;32291;52.010;4.446;2024-02-23T05:06:05;76675.75;;;-144.67;80.71
47522;BME280;32291;52.010;4.446;2024-02-23T05:07:12;76686.44;;;-144.67;80.85
47522;BME280;32291;52.010;4.446;2024-02-23T05:08:19;76707.84;;;-144.67;82.43
47522;BME280;32291;52.010;4.446;2024-02-23T05:09:27;76690.72;;;-144.67;82.34
47522;BME280;32291;52.010;4.446;2024-02-23T05:10:34;76729.25;;;-144.67;83.85
47522;BME280;32291;52.010;4.446;2024-02-23T05:11:41;76699.28;;;-144.67;83.75
47522;BME280;32291;52.010;4.446;2024-02-23T05:12:48;76677.88;;;-144.67;83.45
47522;BME280;32291;52.010;4.446;2024-02-23T05:13:55;76684.31;;;-144.67;84.00
47522;BME280;32291;52.010;4.446;2024-02-23T05:15:02;76669.34;;;-144.67;83.75
47522;BME280;32291;52.010;4.446;2024-02-23T05:16:13;76647.94;;;-144.67;83.23
47522;BME280;32291;52.010;4.446;2024-02-23T05:17:20;76652.22;;;-144.67;83.33
47522;BME280;32291;52.010;4.446;2024-02-23T05:18:27;76650.06;;;-144.67;83.48
47522;BME280;32291;52.010;4.446;2024-02-23T05:19:34;76660.78;;;-144.67;83.71
47522;BME280;32291;52.010;4.446;2024-02-23T05:20:41;76673.63;;;-144.67;84.35
47522;BME280;32291;52.010;4.446;2024-02-23T05:21:48;76673.63;;;-144.67;84.77
47522;BME280;32291;52.010;4.446;2024-02-23T05:22:55;76714.28;;;-144.67;84.77
47522;BME280;32291;52.010;4.446;2024-02-23T05:24:02;76692.88;;;-144.67;85.48
47522;BME280;32291;52.010;4.446;2024-02-23T05:25:08;76707.84;;;-144.67;85.84
47522;BME280;32291;52.010;4.446;2024-02-23T05:26:15;76742.09;;;-144.67;86.24
47522;BME280;32291;52.010;4.446;2024-02-23T05:27:22;76712.13;;;-144.67;85.76
47522;BME280;32291;52.010;4.446;2024-02-23T05:28:29;76682.16;;;-144.67;85.01
47522;BME280;32291;52.010;4.446;2024-02-23T05:29:36;76690.72;;;-144.67;84.72
47522;BME280;32291;52.010;4.446;2024-02-23T05:30:38;76733.53;;;-144.67;85.23
47522;BME280;32291;52.010;4.446;2024-02-23T05:31:48;76718.56;;;-144.67;85.22
47522;BME280;32291;52.010;4.446;2024-02-23T05:32:55;76686.44;;;-144.67;84.72
47522;BME280;32291;52.010;4.446;2024-02-23T05:34:05;76643.66;;;-144.67;83.39
47522;BME280;32291;52.010;4.446;2024-02-23T05:35:12;76665.06;;;-144.67;83.68
47522;BME280;32291;52.010;4.446;2024-02-23T05:36:19;76684.31;;;-144.67;84.09
47522;BME280;32291;52.010;4.446;2024-02-23T05:37:26;76686.44;;;-144.67;83.97
47522;BME280;32291;52.010;4.446;2024-02-23T05:38:33;76673.63;;;-144.67;83.44
47522;BME280;32291;52.010;4.446;2024-02-23T05:39:40;76690.72;;;-144.67;83.37
47522;BME280;32291;52.010;4.446;2024-02-23T05:40:43;76692.88;;;-144.67;83.93
47522;BME280;32291;52.010;4.446;2024-02-23T05:41:49;76722.84;;;-144.67;84.16